Cargo Flight from Seattle to Spokane


#1

I am currently sitting at GEG (Spokane) Washington loading up cargo for my VA and here’s the current METAR here is:

KGEG 091453Z 05019G31KT 3SM BLSN BR FEW035 BKN040 OVC055
M10/M15 A2978 RMK AO2 PK WND 04031/1436 SNE53 SLP118 TWR VIS 4+
DRSN P0000 60001 T11001150 58001

While flying over the Cascades Mountains the morning fog was all over, and coming into EGE I ran into fog.

I’m about to head back to Boeing Fields, the current METAR is
:

KBFI 091453Z 34005KT 1/2SM SN FZFG VV008 M01/M03 A2963 RMK AO2
SNB22 SLP034 P0000 60000 T10061028 53008

Going be a fun day of shooting approaches!


#2

Once landed a 748 at KBFI with 1SM visibility,luck.


#3

That’s not bad - I’ve done 1600 rvr with the TBM in Southeast Alaska. Think about a week or two ago.


#4

what kind of cargo were you flying around 🤔


#5

Early morning Mail Run.


#6

Well hello Postman Pat and his TBM930

Jk nice photos btw 🙂


#7

Thank you! I enjoy flying the TBM around the Pacific Northwest


#8

What is the VA? (BTW cool shots!)


#9

It’s a small one I own with a few pilots operating TBMs and 208s